sensor_id;sensor_type;location;lat;lon;timestamp;P1;durP1;ratioP1;P2;durP2;ratioP2
44130;SDS011;29792;48.726;9.248;2024-02-14T00:00:18;8.93;;;6.63;;
44130;SDS011;29792;48.726;9.248;2024-02-14T00:02:43;9.25;;;6.70;;
44130;SDS011;29792;48.726;9.248;2024-02-14T00:05:10;10.07;;;5.90;;
44130;SDS011;29792;48.726;9.248;2024-02-14T00:07:36;8.70;;;6.20;;
44130;SDS011;29792;48.726;9.248;2024-02-14T00:10:02;10.32;;;6.03;;
44130;SDS011;29792;48.726;9.248;2024-02-14T00:12:27;10.32;;;7.15;;
44130;SDS011;29792;48.726;9.248;2024-02-14T00:14:52;10.23;;;5.60;;
44130;SDS011;29792;48.726;9.248;2024-02-14T00:17:18;7.40;;;5.55;;
44130;SDS011;29792;48.726;9.248;2024-02-14T00:19:43;7.95;;;4.72;;
44130;SDS011;29792;48.726;9.248;2024-02-14T00:22:08;7.70;;;5.95;;
44130;SDS011;29792;48.726;9.248;2024-02-14T00:24:34;7.85;;;5.70;;
44130;SDS011;29792;48.726;9.248;2024-02-14T00:27:00;10.55;;;6.93;;
44130;SDS011;29792;48.726;9.248;2024-02-14T00:29:28;8.60;;;6.43;;
44130;SDS011;29792;48.726;9.248;2024-02-14T00:31:53;8.27;;;5.75;;
44130;SDS011;29792;48.726;9.248;2024-02-14T00:34:18;16.17;;;6.65;;
44130;SDS011;29792;48.726;9.248;2024-02-14T00:36:43;10.05;;;6.43;;
44130;SDS011;29792;48.726;9.248;2024-02-14T00:39:09;7.30;;;5.80;;
44130;SDS011;29792;48.726;9.248;2024-02-14T00:41:34;7.53;;;5.13;;
44130;SDS011;29792;48.726;9.248;2024-02-14T00:44:00;9.07;;;5.22;;
44130;SDS011;29792;48.726;9.248;2024-02-14T00:46:26;8.07;;;5.50;;
44130;SDS011;29792;48.726;9.248;2024-02-14T00:48:52;7.88;;;5.22;;
44130;SDS011;29792;48.726;9.248;2024-02-14T00:51:19;7.40;;;5.57;;
44130;SDS011;29792;48.726;9.248;2024-02-14T00:53:44;9.48;;;4.65;;
44130;SDS011;29792;48.726;9.248;2024-02-14T00:56:09;6.57;;;5.35;;
44130;SDS011;29792;48.726;9.248;2024-02-14T00:58:35;9.90;;;5.88;;
44130;SDS011;29792;48.726;9.248;2024-02-14T01:01:00;8.18;;;4.88;;
44130;SDS011;29792;48.726;9.248;2024-02-14T01:03:25;6.45;;;4.95;;
44130;SDS011;29792;48.726;9.248;2024-02-14T01:05:51;5.10;;;3.67;;
44130;SDS011;29792;48.726;9.248;2024-02-14T01:08:16;7.47;;;4.03;;
44130;SDS011;29792;48.726;9.248;2024-02-14T01:10:42;5.00;;;3.35;;
44130;SDS011;29792;48.726;9.248;2024-02-14T01:13:07;5.57;;;4.22;;
44130;SDS011;29792;48.726;9.248;2024-02-14T01:15:33;7.25;;;3.90;;
44130;SDS011;29792;48.726;9.248;2024-02-14T01:17:58;6.10;;;3.28;;
44130;SDS011;29792;48.726;9.248;2024-02-14T01:20:24;7.07;;;3.90;;
44130;SDS011;29792;48.726;9.248;2024-02-14T01:22:50;4.72;;;4.05;;
44130;SDS011;29792;48.726;9.248;2024-02-14T01:25:15;6.28;;;3.65;;
44130;SDS011;29792;48.726;9.248;2024-02-14T01:27:40;6.68;;;3.75;;
44130;SDS011;29792;48.726;9.248;2024-02-14T01:30:06;6.15;;;3.42;;
44130;SDS011;29792;48.726;9.248;2024-02-14T01:32:32;4.13;;;3.55;;
44130;SDS011;29792;48.726;9.248;2024-02-14T01:34:57;6.60;;;5.07;;
44130;SDS011;29792;48.726;9.248;2024-02-14T01:37:22;5.75;;;2.88;;
44130;SDS011;29792;48.726;9.248;2024-02-14T01:39:48;6.95;;;3.58;;
44130;SDS011;29792;48.726;9.248;2024-02-14T01:42:13;3.83;;;3.30;;
44130;SDS011;29792;48.726;9.248;2024-02-14T01:44:38;4.88;;;3.80;;
44130;SDS011;29792;48.726;9.248;2024-02-14T01:47:03;4.15;;;2.65;;
44130;SDS011;29792;48.726;9.248;2024-02-14T01:49:29;7.13;;;3.25;;
44130;SDS011;29792;48.726;9.248;2024-02-14T01:51:58;6.05;;;3.38;;
44130;SDS011;29792;48.726;9.248;2024-02-14T01:54:27;5.53;;;3.22;;
44130;SDS011;29792;48.726;9.248;2024-02-14T01:56:53;4.20;;;2.65;;
44130;SDS011;29792;48.726;9.248;2024-02-14T01:59:19;5.35;;;3.58;;
44130;SDS011;29792;48.726;9.248;2024-02-14T02:01:45;7.20;;;3.00;;
44130;SDS011;29792;48.726;9.248;2024-02-14T02:04:11;6.72;;;3.33;;
44130;SDS011;29792;48.726;9.248;2024-02-14T02:06:37;7.88;;;3.42;;
44130;SDS011;29792;48.726;9.248;2024-02-14T02:09:02;6.38;;;3.95;;
44130;SDS011;29792;48.726;9.248;2024-02-14T02:11:27;4.13;;;2.70;;
44130;SDS011;29792;48.726;9.248;2024-02-14T02:13:53;2.90;;;2.55;;
44130;SDS011;29792;48.726;9.248;2024-02-14T02:16:18;6.28;;;4.47;;
44130;SDS011;29792;48.726;9.248;2024-02-14T02:18:44;4.45;;;3.20;;
44130;SDS011;29792;48.726;9.248;2024-02-14T02:21:10;3.53;;;3.20;;
44130;SDS011;29792;48.726;9.248;2024-02-14T02:23:37;6.63;;;4.07;;
44130;SDS011;29792;48.726;9.248;2024-02-14T02:26:03;5.20;;;3.42;;
44130;SDS011;29792;48.726;9.248;2024-02-14T02:28:28;4.30;;;3.30;;
44130;SDS011;29792;48.726;9.248;2024-02-14T02:30:53;5.28;;;3.38;;
44130;SDS011;29792;48.726;9.248;2024-02-14T02:33:20;4.43;;;3.75;;
44130;SDS011;29792;48.726;9.248;2024-02-14T02:35:46;6.35;;;4.95;;
44130;SDS011;29792;48.726;9.248;2024-02-14T02:38:12;8.30;;;4.60;;
44130;SDS011;29792;48.726;9.248;2024-02-14T02:40:37;8.70;;;5.03;;
44130;SDS011;29792;48.726;9.248;2024-02-14T02:43:03;7.10;;;4.43;;
44130;SDS011;29792;48.726;9.248;2024-02-14T02:45:28;5.05;;;4.18;;
44130;SDS011;29792;48.726;9.248;2024-02-14T02:47:54;7.90;;;4.70;;
44130;SDS011;29792;48.726;9.248;2024-02-14T02:50:20;5.95;;;4.10;;
44130;SDS011;29792;48.726;9.248;2024-02-14T02:52:46;8.93;;;4.70;;
44130;SDS011;29792;48.726;9.248;2024-02-14T02:55:12;6.93;;;5.05;;
44130;SDS011;29792;48.726;9.248;2024-02-14T02:57:37;8.35;;;5.18;;
44130;SDS011;29792;48.726;9.248;2024-02-14T03:00:04;7.65;;;5.85;;
44130;SDS011;29792;48.726;9.248;2024-02-14T03:02:32;7.00;;;4.32;;
44130;SDS011;29792;48.726;9.248;2024-02-14T03:04:59;6.78;;;4.63;;
44130;SDS011;29792;48.726;9.248;2024-02-14T03:07:25;5.60;;;4.50;;
44130;SDS011;29792;48.726;9.248;2024-02-14T03:09:50;5.85;;;5.25;;
44130;SDS011;29792;48.726;9.248;2024-02-14T03:12:16;5.25;;;4.25;;
44130;SDS011;29792;48.726;9.248;2024-02-14T03:14:41;8.38;;;4.50;;
44130;SDS011;29792;48.726;9.248;2024-02-14T03:17:08;5.72;;;5.13;;
44130;SDS011;29792;48.726;9.248;2024-02-14T03:19:33;6.95;;;4.53;;
44130;SDS011;29792;48.726;9.248;2024-02-14T03:22:03;8.70;;;5.57;;
44130;SDS011;29792;48.726;9.248;2024-02-14T03:24:30;6.40;;;5.00;;
44130;SDS011;29792;48.726;9.248;2024-02-14T03:26:56;6.25;;;4.60;;
44130;SDS011;29792;48.726;9.248;2024-02-14T03:29:21;5.97;;;5.13;;
44130;SDS011;29792;48.726;9.248;2024-02-14T03:31:46;6.70;;;4.95;;
44130;SDS011;29792;48.726;9.248;2024-02-14T03:34:12;7.13;;;5.15;;
44130;SDS011;29792;48.726;9.248;2024-02-14T03:36:37;6.57;;;4.20;;
44130;SDS011;29792;48.726;9.248;2024-02-14T03:39:03;6.32;;;4.35;;
44130;SDS011;29792;48.726;9.248;2024-02-14T03:41:30;9.50;;;5.60;;
44130;SDS011;29792;48.726;9.248;2024-02-14T03:43:56;7.15;;;4.47;;
44130;SDS011;29792;48.726;9.248;2024-02-14T03:46:25;7.15;;;4.30;;
44130;SDS011;29792;48.726;9.248;2024-02-14T03:48:51;6.95;;;4.40;;
44130;SDS011;29792;48.726;9.248;2024-02-14T03:51:17;6.88;;;4.40;;
44130;SDS011;29792;48.726;9.248;2024-02-14T03:53:44;7.68;;;4.22;;
44130;SDS011;29792;48.726;9.248;2024-02-14T03:56:09;7.32;;;5.70;;
44130;SDS011;29792;48.726;9.248;2024-02-14T03:58:35;5.63;;;4.63;;
44130;SDS011;29792;48.726;9.248;2024-02-14T04:01:02;7.85;;;4.10;;
44130;SDS011;29792;48.726;9.248;2024-02-14T04:03:30;5.45;;;4.53;;
44130;SDS011;29792;48.726;9.248;2024-02-14T04:05:56;6.15;;;4.88;;
44130;SDS011;29792;48.726;9.248;2024-02-14T04:08:22;6.18;;;4.30;;
44130;SDS011;29792;48.726;9.248;2024-02-14T04:10:47;7.43;;;5.75;;
44130;SDS011;29792;48.726;9.248;2024-02-14T04:13:15;5.03;;;4.15;;
44130;SDS011;29792;48.726;9.248;2024-02-14T04:15:40;6.47;;;4.32;;
44130;SDS011;29792;48.726;9.248;2024-02-14T04:18:07;7.10;;;4.65;;
44130;SDS011;29792;48.726;9.248;2024-02-14T04:20:33;7.45;;;4.95;;
44130;SDS011;29792;48.726;9.248;2024-02-14T04:22:58;6.97;;;5.60;;
44130;SDS011;29792;48.726;9.248;2024-02-14T04:25:23;8.07;;;5.93;;
44130;SDS011;29792;48.726;9.248;2024-02-14T04:27:49;6.43;;;5.75;;
44130;SDS011;29792;48.726;9.248;2024-02-14T04:30:14;8.20;;;5.63;;
44130;SDS011;29792;48.726;9.248;2024-02-14T04:32:39;5.68;;;5.03;;
44130;SDS011;29792;48.726;9.248;2024-02-14T04:35:04;9.77;;;5.97;;
44130;SDS011;29792;48.726;9.248;2024-02-14T04:37:30;7.65;;;5.03;;
44130;SDS011;29792;48.726;9.248;2024-02-14T04:39:55;7.90;;;5.03;;
44130;SDS011;29792;48.726;9.248;2024-02-14T04:42:20;7.40;;;5.65;;
44130;SDS011;29792;48.726;9.248;2024-02-14T04:44:46;9.45;;;5.60;;
44130;SDS011;29792;48.726;9.248;2024-02-14T04:47:11;6.50;;;4.88;;
44130;SDS011;29792;48.726;9.248;2024-02-14T04:49:36;5.82;;;4.78;;
44130;SDS011;29792;48.726;9.248;2024-02-14T04:52:02;7.75;;;5.47;;
44130;SDS011;29792;48.726;9.248;2024-02-14T04:54:27;10.13;;;5.70;;
44130;SDS011;29792;48.726;9.248;2024-02-14T04:56:53;6.65;;;5.82;;
44130;SDS011;29792;48.726;9.248;2024-02-14T04:59:18;10.38;;;5.97;;
44130;SDS011;29792;48.726;9.248;2024-02-14T05:01:44;9.73;;;5.60;;
44130;SDS011;29792;48.726;9.248;2024-02-14T05:04:09;9.75;;;5.63;;
44130;SDS011;29792;48.726;9.248;2024-02-14T05:06:35;6.30;;;5.70;;
44130;SDS011;29792;48.726;9.248;2024-02-14T05:09:01;6.63;;;5.50;;
44130;SDS011;29792;48.726;9.248;2024-02-14T05:11:26;9.35;;;5.78;;
44130;SDS011;29792;48.726;9.248;2024-02-14T05:13:51;8.30;;;6.68;;
44130;SDS011;29792;48.726;9.248;2024-02-14T05:16:17;7.78;;;6.85;;
44130;SDS011;29792;48.726;9.248;2024-02-14T05:18:43;7.82;;;5.30;;
44130;SDS011;29792;48.726;9.248;2024-02-14T05:21:09;9.80;;;6.03;;
44130;SDS011;29792;48.726;9.248;2024-02-14T05:23:34;7.18;;;5.18;;
44130;SDS011;29792;48.726;9.248;2024-02-14T05:26:00;8.63;;;6.20;;
44130;SDS011;29792;48.726;9.248;2024-02-14T05:28:27;10.05;;;5.97;;
44130;SDS011;29792;48.726;9.248;2024-02-14T05:30:56;10.50;;;5.80;;
44130;SDS011;29792;48.726;9.248;2024-02-14T05:33:21;9.13;;;6.22;;
44130;SDS011;29792;48.726;9.248;2024-02-14T05:35:50;7.93;;;7.07;;
44130;SDS011;29792;48.726;9.248;2024-02-14T05:38:16;10.75;;;6.20;;
44130;SDS011;29792;48.726;9.248;2024-02-14T05:40:44;7.57;;;6.13;;
44130;SDS011;29792;48.726;9.248;2024-02-14T05:43:10;7.55;;;5.63;;
44130;SDS011;29792;48.726;9.248;2024-02-14T05:45:35;8.73;;;6.93;;
44130;SDS011;29792;48.726;9.248;2024-02-14T05:48:01;9.60;;;5.90;;
44130;SDS011;29792;48.726;9.248;2024-02-14T05:50:26;7.10;;;5.88;;
44130;SDS011;29792;48.726;9.248;2024-02-14T05:52:52;6.95;;;5.47;;
44130;SDS011;29792;48.726;9.248;2024-02-14T05:55:17;6.70;;;6.03;;
44130;SDS011;29792;48.726;9.248;2024-02-14T05:57:43;7.18;;;6.03;;
44130;SDS011;29792;48.726;9.248;2024-02-14T06:00:09;8.38;;;6.35;;
44130;SDS011;29792;48.726;9.248;2024-02-14T06:02:35;6.97;;;6.28;;
44130;SDS011;29792;48.726;9.248;2024-02-14T06:05:00;8.50;;;5.15;;
44130;SDS011;29792;48.726;9.248;2024-02-14T06:07:26;7.88;;;5.32;;
44130;SDS011;29792;48.726;9.248;2024-02-14T06:09:51;7.93;;;5.40;;
44130;SDS011;29792;48.726;9.248;2024-02-14T06:12:16;6.47;;;5.88;;
44130;SDS011;29792;48.726;9.248;2024-02-14T06:14:41;7.13;;;4.78;;
44130;SDS011;29792;48.726;9.248;2024-02-14T06:17:07;6.28;;;5.55;;
44130;SDS011;29792;48.726;9.248;2024-02-14T06:19:32;7.05;;;4.97;;
44130;SDS011;29792;48.726;9.248;2024-02-14T06:21:58;6.43;;;4.65;;
44130;SDS011;29792;48.726;9.248;2024-02-14T06:24:24;8.60;;;5.72;;
44130;SDS011;29792;48.726;9.248;2024-02-14T06:26:49;9.90;;;4.55;;
44130;SDS011;29792;48.726;9.248;2024-02-14T06:29:14;8.50;;;4.88;;
44130;SDS011;29792;48.726;9.248;2024-02-14T06:31:40;6.90;;;5.70;;
44130;SDS011;29792;48.726;9.248;2024-02-14T06:34:05;9.57;;;7.80;;
44130;SDS011;29792;48.726;9.248;2024-02-14T06:36:32;7.15;;;5.35;;
44130;SDS011;29792;48.726;9.248;2024-02-14T06:38:57;9.70;;;5.82;;
44130;SDS011;29792;48.726;9.248;2024-02-14T06:41:22;7.25;;;5.55;;
44130;SDS011;29792;48.726;9.248;2024-02-14T06:43:48;8.50;;;5.57;;
44130;SDS011;29792;48.726;9.248;2024-02-14T06:46:14;7.80;;;5.63;;
44130;SDS011;29792;48.726;9.248;2024-02-14T06:48:39;7.15;;;5.53;;
44130;SDS011;29792;48.726;9.248;2024-02-14T06:51:06;8.48;;;5.60;;
44130;SDS011;29792;48.726;9.248;2024-02-14T06:53:32;8.02;;;5.72;;
44130;SDS011;29792;48.726;9.248;2024-02-14T06:55:57;7.00;;;4.65;;
44130;SDS011;29792;48.726;9.248;2024-02-14T06:58:22;8.60;;;4.95;;
44130;SDS011;29792;48.726;9.248;2024-02-14T07:00:47;8.77;;;4.70;;
44130;SDS011;29792;48.726;9.248;2024-02-14T07:03:13;5.63;;;4.88;;
44130;SDS011;29792;48.726;9.248;2024-02-14T07:05:38;5.13;;;4.45;;
44130;SDS011;29792;48.726;9.248;2024-02-14T07:08:04;7.00;;;4.90;;
44130;SDS011;29792;48.726;9.248;2024-02-14T07:10:30;6.03;;;5.43;;
44130;SDS011;29792;48.726;9.248;2024-02-14T07:12:55;5.68;;;4.40;;
44130;SDS011;29792;48.726;9.248;2024-02-14T07:15:20;7.68;;;4.63;;
44130;SDS011;29792;48.726;9.248;2024-02-14T07:17:46;5.80;;;2.20;;
44130;SDS011;29792;48.726;9.248;2024-02-14T07:20:11;6.35;;;3.85;;
44130;SDS011;29792;48.726;9.248;2024-02-14T07:22:37;5.68;;;3.05;;
44130;SDS011;29792;48.726;9.248;2024-02-14T07:25:03;4.53;;;2.97;;
44130;SDS011;29792;48.726;9.248;2024-02-14T07:27:30;3.70;;;2.22;;
44130;SDS011;29792;48.726;9.248;2024-02-14T07:29:55;3.28;;;2.47;;
44130;SDS011;29792;48.726;9.248;2024-02-14T07:32:20;7.53;;;2.13;;
44130;SDS011;29792;48.726;9.248;2024-02-14T07:34:46;3.33;;;2.08;;
44130;SDS011;29792;48.726;9.248;2024-02-14T07:37:12;4.28;;;2.38;;
44130;SDS011;29792;48.726;9.248;2024-02-14T07:39:37;2.88;;;2.08;;
44130;SDS011;29792;48.726;9.248;2024-02-14T07:42:02;3.28;;;1.45;;
44130;SDS011;29792;48.726;9.248;2024-02-14T07:44:28;3.80;;;2.28;;
44130;SDS011;29792;48.726;9.248;2024-02-14T07:46:53;3.90;;;2.00;;
44130;SDS011;29792;48.726;9.248;2024-02-14T07:49:19;3.58;;;1.95;;
44130;SDS011;29792;48.726;9.248;2024-02-14T07:51:44;3.88;;;2.03;;
44130;SDS011;29792;48.726;9.248;2024-02-14T07:54:10;4.05;;;2.70;;
44130;SDS011;29792;48.726;9.248;2024-02-14T07:56:35;3.80;;;2.90;;
44130;SDS011;29792;48.726;9.248;2024-02-14T07:59:01;5.35;;;3.55;;
44130;SDS011;29792;48.726;9.248;2024-02-14T08:01:26;6.28;;;3.80;;
44130;SDS011;29792;48.726;9.248;2024-02-14T08:03:51;6.75;;;3.50;;
44130;SDS011;29792;48.726;9.248;2024-02-14T08:06:17;7.68;;;4.13;;
44130;SDS011;29792;48.726;9.248;2024-02-14T08:08:42;5.88;;;4.70;;
44130;SDS011;29792;48.726;9.248;2024-02-14T08:11:08;8.45;;;6.00;;
44130;SDS011;29792;48.726;9.248;2024-02-14T08:13:34;7.55;;;4.13;;
44130;SDS011;29792;48.726;9.248;2024-02-14T08:15:59;5.85;;;4.53;;
44130;SDS011;29792;48.726;9.248;2024-02-14T08:18:25;6.60;;;4.30;;
44130;SDS011;29792;48.726;9.248;2024-02-14T08:20:52;7.38;;;4.07;;
44130;SDS011;29792;48.726;9.248;2024-02-14T08:23:17;8.20;;;5.07;;
44130;SDS011;29792;48.726;9.248;2024-02-14T08:25:42;4.25;;;3.72;;
44130;SDS011;29792;48.726;9.248;2024-02-14T08:28:08;5.57;;;3.90;;
44130;SDS011;29792;48.726;9.248;2024-02-14T08:30:34;8.52;;;3.97;;
44130;SDS011;29792;48.726;9.248;2024-02-14T08:33:00;4.35;;;3.95;;
44130;SDS011;29792;48.726;9.248;2024-02-14T08:35:25;5.32;;;3.72;;
44130;SDS011;29792;48.726;9.248;2024-02-14T08:37:50;4.53;;;3.92;;
44130;SDS011;29792;48.726;9.248;2024-02-14T08:40:15;5.13;;;4.07;;
44130;SDS011;29792;48.726;9.248;2024-02-14T08:42:41;5.65;;;3.90;;
44130;SDS011;29792;48.726;9.248;2024-02-14T08:45:06;7.30;;;4.18;;
44130;SDS011;29792;48.726;9.248;2024-02-14T08:47:32;7.88;;;5.28;;
44130;SDS011;29792;48.726;9.248;2024-02-14T08:49:57;7.80;;;4.43;;
44130;SDS011;29792;48.726;9.248;2024-02-14T08:52:22;6.15;;;4.65;;
44130;SDS011;29792;48.726;9.248;2024-02-14T08:54:47;7.32;;;4.30;;
44130;SDS011;29792;48.726;9.248;2024-02-14T08:57:13;4.95;;;3.65;;
44130;SDS011;29792;48.726;9.248;2024-02-14T08:59:38;6.78;;;4.35;;
44130;SDS011;29792;48.726;9.248;2024-02-14T09:02:03;7.63;;;5.18;;
44130;SDS011;29792;48.726;9.248;2024-02-14T09:04:29;7.57;;;4.78;;
44130;SDS011;29792;48.726;9.248;2024-02-14T09:06:54;9.43;;;4.40;;
44130;SDS011;29792;48.726;9.248;2024-02-14T09:09:20;5.53;;;4.32;;
44130;SDS011;29792;48.726;9.248;2024-02-14T09:11:45;6.32;;;4.10;;
44130;SDS011;29792;48.726;9.248;2024-02-14T09:14:11;5.95;;;4.13;;
44130;SDS011;29792;48.726;9.248;2024-02-14T09:16:37;5.47;;;3.75;;
44130;SDS011;29792;48.726;9.248;2024-02-14T09:19:02;5.38;;;3.63;;
44130;SDS011;29792;48.726;9.248;2024-02-14T09:21:30;7.25;;;3.72;;
44130;SDS011;29792;48.726;9.248;2024-02-14T09:23:55;5.68;;;2.90;;
44130;SDS011;29792;48.726;9.248;2024-02-14T09:26:21;3.75;;;1.50;;
44130;SDS011;29792;48.726;9.248;2024-02-14T09:28:46;4.03;;;2.80;;
44130;SDS011;29792;48.726;9.248;2024-02-14T09:31:12;4.38;;;1.88;;
44130;SDS011;29792;48.726;9.248;2024-02-14T09:33:42;2.88;;;1.65;;
44130;SDS011;29792;48.726;9.248;2024-02-14T09:36:07;4.57;;;1.40;;
44130;SDS011;29792;48.726;9.248;2024-02-14T09:38:33;2.88;;;1.45;;
44130;SDS011;29792;48.726;9.248;2024-02-14T09:41:02;2.28;;;1.40;;
44130;SDS011;29792;48.726;9.248;2024-02-14T09:43:36;2.30;;;1.40;;
44130;SDS011;29792;48.726;9.248;2024-02-14T09:46:06;2.20;;;1.30;;
44130;SDS011;29792;48.726;9.248;2024-02-14T09:48:32;2.88;;;1.05;;
44130;SDS011;29792;48.726;9.248;2024-02-14T09:50:58;1.40;;;1.00;;
44130;SDS011;29792;48.726;9.248;2024-02-14T09:53:24;1.65;;;0.95;;
44130;SDS011;29792;48.726;9.248;2024-02-14T09:55:51;2.38;;;1.20;;
44130;SDS011;29792;48.726;9.248;2024-02-14T09:58:17;4.53;;;1.30;;
44130;SDS011;29792;48.726;9.248;2024-02-14T10:00:43;0.95;;;0.80;;
44130;SDS011;29792;48.726;9.248;2024-02-14T10:03:08;2.67;;;0.65;;
44130;SDS011;29792;48.726;9.248;2024-02-14T10:05:34;1.48;;;0.70;;
44130;SDS011;29792;48.726;9.248;2024-02-14T10:07:59;1.70;;;1.08;;
44130;SDS011;29792;48.726;9.248;2024-02-14T10:10:26;4.82;;;1.02;;
44130;SDS011;29792;48.726;9.248;2024-02-14T10:12:54;1.48;;;0.73;;
44130;SDS011;29792;48.726;9.248;2024-02-14T10:15:19;1.67;;;0.50;;
44130;SDS011;29792;48.726;9.248;2024-02-14T10:17:45;2.30;;;0.82;;
44130;SDS011;29792;48.726;9.248;2024-02-14T10:20:16;1.55;;;0.70;;
44130;SDS011;29792;48.726;9.248;2024-02-14T10:22:42;1.33;;;0.85;;
44130;SDS011;29792;48.726;9.248;2024-02-14T10:25:07;1.20;;;0.43;;
44130;SDS011;29792;48.726;9.248;2024-02-14T10:27:37;1.52;;;0.88;;
44130;SDS011;29792;48.726;9.248;2024-02-14T10:30:04;1.40;;;0.63;;
44130;SDS011;29792;48.726;9.248;2024-02-14T10:32:33;2.67;;;0.50;;
44130;SDS011;29792;48.726;9.248;2024-02-14T10:34:58;1.13;;;0.65;;
44130;SDS011;29792;48.726;9.248;2024-02-14T10:37:25;2.63;;;0.70;;
44130;SDS011;29792;48.726;9.248;2024-02-14T10:39:53;1.63;;;0.70;;
44130;SDS011;29792;48.726;9.248;2024-02-14T10:42:21;1.35;;;0.70;;
44130;SDS011;29792;48.726;9.248;2024-02-14T10:44:46;0.95;;;0.50;;
44130;SDS011;29792;48.726;9.248;2024-02-14T10:47:14;1.25;;;0.50;;
44130;SDS011;29792;48.726;9.248;2024-02-14T10:49:46;0.60;;;0.43;;
44130;SDS011;29792;48.726;9.248;2024-02-14T10:52:13;1.90;;;0.88;;
44130;SDS011;29792;48.726;9.248;2024-02-14T10:54:41;1.27;;;0.60;;
44130;SDS011;29792;48.726;9.248;2024-02-14T10:57:08;1.33;;;0.52;;
44130;SDS011;29792;48.726;9.248;2024-02-14T10:59:36;1.00;;;0.43;;
44130;SDS011;29792;48.726;9.248;2024-02-14T11:02:06;1.60;;;0.70;;
44130;SDS011;29792;48.726;9.248;2024-02-14T11:04:32;2.97;;;0.63;;
44130;SDS011;29792;48.726;9.248;2024-02-14T11:06:58;1.02;;;0.55;;
44130;SDS011;29792;48.726;9.248;2024-02-14T11:09:33;1.45;;;0.60;;
44130;SDS011;29792;48.726;9.248;2024-02-14T11:12:01;1.55;;;0.68;;
44130;SDS011;29792;48.726;9.248;2024-02-14T11:14:29;0.88;;;0.45;;
44130;SDS011;29792;48.726;9.248;2024-02-14T11:16:58;1.08;;;0.38;;
44130;SDS011;29792;48.726;9.248;2024-02-14T11:19:30;0.80;;;0.40;;
44130;SDS011;29792;48.726;9.248;2024-02-14T11:21:58;1.10;;;0.55;;
44130;SDS011;29792;48.726;9.248;2024-02-14T11:24:27;0.90;;;0.40;;
44130;SDS011;29792;48.726;9.248;2024-02-14T11:26:54;1.05;;;0.55;;
44130;SDS011;29792;48.726;9.248;2024-02-14T11:29:20;2.38;;;0.52;;
44130;SDS011;29792;48.726;9.248;2024-02-14T11:31:46;0.95;;;0.50;;
44130;SDS011;29792;48.726;9.248;2024-02-14T11:34:16;2.47;;;0.90;;
44130;SDS011;29792;48.726;9.248;2024-02-14T11:36:42;1.00;;;0.47;;
44130;SDS011;29792;48.726;9.248;2024-02-14T11:39:09;1.15;;;0.60;;
44130;SDS011;29792;48.726;9.248;2024-02-14T11:41:35;0.90;;;0.50;;
44130;SDS011;29792;48.726;9.248;2024-02-14T11:44:00;6.65;;;3.88;;
44130;SDS011;29792;48.726;9.248;2024-02-14T11:46:29;1.27;;;0.65;;
44130;SDS011;29792;48.726;9.248;2024-02-14T11:48:56;2.53;;;0.73;;
44130;SDS011;29792;48.726;9.248;2024-02-14T11:51:22;1.05;;;0.50;;
44130;SDS011;29792;48.726;9.248;2024-02-14T11:53:47;2.30;;;0.93;;
44130;SDS011;29792;48.726;9.248;2024-02-14T11:56:14;1.27;;;0.70;;
44130;SDS011;29792;48.726;9.248;2024-02-14T11:58:40;1.58;;;0.65;;
44130;SDS011;29792;48.726;9.248;2024-02-14T12:01:05;0.52;;;0.32;;
44130;SDS011;29792;48.726;9.248;2024-02-14T12:03:30;0.85;;;0.63;;
44130;SDS011;29792;48.726;9.248;2024-02-14T12:05:56;1.60;;;0.30;;
44130;SDS011;29792;48.726;9.248;2024-02-14T12:08:22;1.95;;;0.45;;
44130;SDS011;29792;48.726;9.248;2024-02-14T12:10:48;0.98;;;0.40;;
44130;SDS011;29792;48.726;9.248;2024-02-14T12:13:15;0.73;;;0.30;;
44130;SDS011;29792;48.726;9.248;2024-02-14T12:15:45;0.55;;;0.30;;
44130;SDS011;29792;48.726;9.248;2024-02-14T12:18:12;0.57;;;0.50;;
44130;SDS011;29792;48.726;9.248;2024-02-14T12:20:41;0.60;;;0.30;;
44130;SDS011;29792;48.726;9.248;2024-02-14T12:23:06;0.65;;;0.30;;
44130;SDS011;29792;48.726;9.248;2024-02-14T12:25:32;0.38;;;0.28;;
44130;SDS011;29792;48.726;9.248;2024-02-14T12:27:58;1.35;;;0.20;;
44130;SDS011;29792;48.726;9.248;2024-02-14T12:33:13;1.58;;;0.30;;
44130;SDS011;29792;48.726;9.248;2024-02-14T12:35:42;0.25;;;0.20;;
44130;SDS011;29792;48.726;9.248;2024-02-14T12:38:09;1.75;;;0.50;;
44130;SDS011;29792;48.726;9.248;2024-02-14T12:40:36;0.55;;;0.20;;
44130;SDS011;29792;48.726;9.248;2024-02-14T12:43:01;1.60;;;0.60;;
44130;SDS011;29792;48.726;9.248;2024-02-14T12:45:26;0.70;;;0.30;;
44130;SDS011;29792;48.726;9.248;2024-02-14T12:47:52;3.03;;;0.43;;
44130;SDS011;29792;48.726;9.248;2024-02-14T12:50:18;1.52;;;0.50;;
44130;SDS011;29792;48.726;9.248;2024-02-14T12:52:45;0.90;;;0.30;;
44130;SDS011;29792;48.726;9.248;2024-02-14T12:55:11;0.35;;;0.35;;
44130;SDS011;29792;48.726;9.248;2024-02-14T12:57:36;0.47;;;0.10;;
44130;SDS011;29792;48.726;9.248;2024-02-14T13:00:02;0.55;;;0.20;;
44130;SDS011;29792;48.726;9.248;2024-02-14T13:02:30;1.25;;;0.47;;
44130;SDS011;29792;48.726;9.248;2024-02-14T13:04:56;0.65;;;0.30;;
44130;SDS011;29792;48.726;9.248;2024-02-14T13:07:21;0.90;;;0.20;;
44130;SDS011;29792;48.726;9.248;2024-02-14T13:09:47;0.65;;;0.65;;
44130;SDS011;29792;48.726;9.248;2024-02-14T13:12:13;0.90;;;0.20;;
44130;SDS011;29792;48.726;9.248;2024-02-14T13:14:39;0.22;;;0.20;;
44130;SDS011;29792;48.726;9.248;2024-02-14T13:17:05;1.50;;;0.17;;
44130;SDS011;29792;48.726;9.248;2024-02-14T13:19:30;0.77;;;0.20;;
44130;SDS011;29792;48.726;9.248;2024-02-14T13:21:55;0.20;;;0.10;;
44130;SDS011;29792;48.726;9.248;2024-02-14T13:24:21;0.70;;;0.30;;
44130;SDS011;29792;48.726;9.248;2024-02-14T13:26:46;2.28;;;0.17;;
44130;SDS011;29792;48.726;9.248;2024-02-14T13:29:11;8.02;;;5.28;;
44130;SDS011;29792;48.726;9.248;2024-02-14T13:31:37;0.93;;;0.30;;
44130;SDS011;29792;48.726;9.248;2024-02-14T13:34:02;3.35;;;1.05;;
44130;SDS011;29792;48.726;9.248;2024-02-14T13:36:28;2.08;;;0.15;;
44130;SDS011;29792;48.726;9.248;2024-02-14T13:38:54;0.30;;;0.20;;
44130;SDS011;29792;48.726;9.248;2024-02-14T13:41:19;0.22;;;0.10;;
44130;SDS011;29792;48.726;9.248;2024-02-14T13:43:44;0.28;;;0.17;;
44130;SDS011;29792;48.726;9.248;2024-02-14T13:46:10;0.35;;;0.20;;
44130;SDS011;29792;48.726;9.248;2024-02-14T13:48:35;1.83;;;0.20;;
44130;SDS011;29792;48.726;9.248;2024-02-14T13:51:01;0.30;;;0.10;;
44130;SDS011;29792;48.726;9.248;2024-02-14T13:53:28;0.10;;;0.10;;
44130;SDS011;29792;48.726;9.248;2024-02-14T13:55:53;0.47;;;0.30;;
44130;SDS011;29792;48.726;9.248;2024-02-14T13:58:19;0.22;;;0.20;;
44130;SDS011;29792;48.726;9.248;2024-02-14T14:00:44;0.30;;;0.20;;
44130;SDS011;29792;48.726;9.248;2024-02-14T14:03:10;0.40;;;0.10;;
44130;SDS011;29792;48.726;9.248;2024-02-14T14:05:35;0.77;;;0.35;;
44130;SDS011;29792;48.726;9.248;2024-02-14T14:08:00;1.83;;;1.10;;
44130;SDS011;29792;48.726;9.248;2024-02-14T14:10:26;0.50;;;0.20;;
44130;SDS011;29792;48.726;9.248;2024-02-14T14:12:52;0.40;;;0.10;;
44130;SDS011;29792;48.726;9.248;2024-02-14T14:15:18;0.20;;;0.10;;
44130;SDS011;29792;48.726;9.248;2024-02-14T14:17:43;0.30;;;0.20;;
44130;SDS011;29792;48.726;9.248;2024-02-14T14:20:08;1.75;;;0.30;;
44130;SDS011;29792;48.726;9.248;2024-02-14T14:22:34;0.80;;;0.20;;
44130;SDS011;29792;48.726;9.248;2024-02-14T14:25:00;0.32;;;0.17;;
44130;SDS011;29792;48.726;9.248;2024-02-14T14:27:25;0.88;;;0.28;;
44130;SDS011;29792;48.726;9.248;2024-02-14T14:29:50;0.68;;;0.30;;
44130;SDS011;29792;48.726;9.248;2024-02-14T14:32:15;0.93;;;0.40;;
44130;SDS011;29792;48.726;9.248;2024-02-14T14:34:41;1.67;;;0.98;;
44130;SDS011;29792;48.726;9.248;2024-02-14T14:37:07;1.38;;;0.20;;
44130;SDS011;29792;48.726;9.248;2024-02-14T14:39:32;0.75;;;0.30;;
44130;SDS011;29792;48.726;9.248;2024-02-14T14:41:57;0.88;;;0.30;;